Time;durP1;ratioP1;P1;durP2;ratioP2;P2;SDS_P1;SDS_P2;PMS_P1;PMS_P2;Temp;Humidity;BMP_temperature;BMP_pressure;BME280_temperature;BME280_humidity;BME280_pressure;Samples;Min_cycle;Max_cycle;Signal;HPM_P1;HPM_P2
2022/04/17 00:01:36;;;;;;;1.63;1.53;;;9.60;44.30;;;;;;936540;149;27354;-74
2022/04/17 00:04:03;;;;;;;1.57;1.47;;;9.60;44.30;;;;;;937693;150;27402;-74
2022/04/17 00:06:29;;;;;;;1.50;1.20;;;9.60;44.50;;;;;;936915;150;27455;-74
2022/04/17 00:08:57;;;;;;;1.97;1.30;;;9.70;45.10;;;;;;936020;150;27293;-74
2022/04/17 00:11:22;;;;;;;2.30;1.27;;;9.70;44.60;;;;;;936922;150;27836;-74
2022/04/17 00:13:49;;;;;;;2.37;1.40;;;9.70;44.70;;;;;;937118;150;27471;-74
2022/04/17 00:16:15;;;;;;;2.27;1.40;;;9.70;44.70;;;;;;938112;150;27404;-74
2022/04/17 00:18:42;;;;;;;1.77;1.30;;;9.70;44.60;;;;;;937325;150;27451;-74
2022/04/17 00:21:09;;;;;;;1.50;1.37;;;9.70;44.70;;;;;;936932;150;27417;-74
2022/04/17 00:23:35;;;;;;;4.23;1.60;;;9.70;44.70;;;;;;936345;150;27248;-73
2022/04/17 00:26:02;;;;;;;2.13;1.20;;;9.70;44.70;;;;;;936817;150;27298;-74
2022/04/17 00:28:29;;;;;;;2.10;1.43;;;9.60;44.80;;;;;;936938;150;27337;-74
2022/04/17 00:30:55;;;;;;;1.80;1.40;;;9.60;44.70;;;;;;937125;149;27346;-74
2022/04/17 00:33:22;;;;;;;1.60;1.47;;;9.60;44.80;;;;;;937307;150;27357;-74
2022/04/17 00:35:48;;;;;;;3.70;1.77;;;9.50;45.00;;;;;;935668;150;27428;-73
2022/04/17 00:38:15;;;;;;;1.57;1.37;;;9.50;44.90;;;;;;936721;150;27417;-73
2022/04/17 00:40:41;;;;;;;1.07;1.07;;;9.40;45.10;;;;;;936324;150;27399;-74
2022/04/17 00:43:25;;;;;;;0.97;0.97;;;9.40;45.30;;;;;;936556;150;27674;-74
2022/04/17 00:45:51;;;;;;;1.63;1.23;;;9.40;45.30;;;;;;936505;150;27446;-74
2022/04/17 00:48:16;;;;;;;1.43;1.30;;;9.30;45.30;;;;;;934692;150;28343;-74
2022/04/17 00:50:43;;;;;;;1.63;1.47;;;9.30;45.50;;;;;;936073;150;27320;-74
2022/04/17 00:53:10;;;;;;;2.70;1.40;;;9.20;45.40;;;;;;935981;150;27679;-74
2022/04/17 00:55:36;;;;;;;1.37;1.27;;;9.20;45.60;;;;;;936180;150;27286;-74
2022/04/17 00:58:03;;;;;;;1.53;1.10;;;9.20;45.70;;;;;;937577;150;27374;-74
2022/04/17 01:00:29;;;;;;;1.40;1.10;;;9.10;45.80;;;;;;937053;150;27797;-74
2022/04/17 01:02:56;;;;;;;2.93;1.50;;;9.10;45.70;;;;;;937028;150;27464;-74
2022/04/17 01:05:22;;;;;;;1.50;1.40;;;9.00;45.70;;;;;;937092;150;27785;-74
2022/04/17 01:07:49;;;;;;;1.40;1.30;;;9.00;45.80;;;;;;937124;150;27445;-74
2022/04/17 01:10:16;;;;;;;1.13;1.13;;;9.00;46.00;;;;;;936669;150;27307;-74
2022/04/17 01:12:42;;;;;;;1.37;1.27;;;8.90;46.00;;;;;;936894;150;27466;-74
2022/04/17 01:15:09;;;;;;;1.63;1.53;;;8.80;46.10;;;;;;936966;150;27518;-74
2022/04/17 01:17:36;;;;;;;1.27;1.20;;;8.80;46.30;;;;;;937674;150;27357;-74
2022/04/17 01:20:02;;;;;;;1.33;1.20;;;8.70;46.40;;;;;;936999;149;27298;-74
2022/04/17 01:22:29;;;;;;;2.17;1.23;;;8.70;46.50;;;;;;936410;150;28691;-74
2022/04/17 01:27:40;;;;;;;1.40;1.30;;;8.60;46.60;;;;;;936134;150;27956;-74
2022/04/17 01:30:07;;;;;;;1.73;1.40;;;8.60;46.70;;;;;;937223;149;27447;-74
2022/04/17 01:32:33;;;;;;;1.13;1.10;;;8.60;46.90;;;;;;936582;150;27416;-74
2022/04/17 01:35:00;;;;;;;1.20;1.17;;;8.50;46.90;;;;;;936982;150;27322;-74
2022/04/17 01:37:27;;;;;;;1.30;1.20;;;8.50;47.00;;;;;;936608;150;27398;-74
2022/04/17 01:39:53;;;;;;;2.43;1.20;;;8.50;47.10;;;;;;936260;150;27444;-74
2022/04/17 01:42:20;;;;;;;2.00;1.20;;;8.50;47.10;;;;;;936537;149;27365;-74
2022/04/17 01:44:46;;;;;;;0.90;0.90;;;8.40;47.20;;;;;;936633;150;27355;-74
2022/04/17 01:47:13;;;;;;;1.30;1.20;;;8.40;47.30;;;;;;937207;150;27336;-74
2022/04/17 01:49:39;;;;;;;2.57;1.37;;;8.30;47.30;;;;;;936612;149;27361;-74
2022/04/17 01:52:06;;;;;;;1.20;1.10;;;8.30;47.30;;;;;;936616;150;27602;-74
2022/04/17 01:54:33;;;;;;;1.97;1.27;;;8.20;47.30;;;;;;936625;150;27438;-74
2022/04/17 01:56:59;;;;;;;1.50;1.40;;;8.10;47.40;;;;;;937055;150;27297;-74
2022/04/17 01:59:26;;;;;;;1.33;1.23;;;8.00;47.60;;;;;;936051;150;27298;-74
2022/04/17 02:01:52;;;;;;;1.57;1.40;;;8.00;47.80;;;;;;938315;150;27357;-74
2022/04/17 02:04:19;;;;;;;1.50;1.40;;;7.90;47.90;;;;;;936032;150;27359;-74
2022/04/17 02:06:47;;;;;;;1.50;1.40;;;7.80;47.90;;;;;;936506;150;27361;-74
2022/04/17 02:09:12;;;;;;;1.60;1.50;;;7.80;48.10;;;;;;938050;150;27365;-74
2022/04/17 02:11:39;;;;;;;1.20;1.10;;;7.70;48.20;;;;;;935453;150;27397;-74
2022/04/17 02:14:06;;;;;;;4.47;1.40;;;7.60;48.30;;;;;;936840;149;27411;-74
2022/04/17 02:16:32;;;;;;;1.80;1.27;;;7.50;48.40;;;;;;942856;149;27318;-74
2022/04/17 02:19:00;;;;;;;1.47;1.37;;;7.50;48.50;;;;;;943606;149;27889;-74
2022/04/17 02:21:25;;;;;;;1.53;1.30;;;7.40;48.60;;;;;;941664;149;27347;-74
2022/04/17 02:23:52;;;;;;;1.87;1.23;;;7.30;48.70;;;;;;942647;149;27388;-74
2022/04/17 02:26:18;;;;;;;1.43;1.33;;;7.30;48.90;;;;;;941876;149;27337;-74
2022/04/17 02:28:45;;;;;;;1.33;1.23;;;7.20;49.00;;;;;;941539;149;27309;-74
2022/04/17 02:31:11;;;;;;;3.13;1.20;;;7.20;49.20;;;;;;943142;149;27408;-74
2022/04/17 02:33:38;;;;;;;1.63;1.20;;;7.10;49.40;;;;;;942526;149;27415;-74
2022/04/17 02:36:05;;;;;;;1.87;1.70;;;7.00;49.50;;;;;;942961;149;27271;-74
2022/04/17 02:38:31;;;;;;;1.63;1.53;;;7.00;49.70;;;;;;943588;149;27605;-74
2022/04/17 02:40:58;;;;;;;2.23;1.17;;;6.90;49.70;;;;;;942532;149;27432;-74
2022/04/17 02:43:24;;;;;;;2.33;1.50;;;6.90;50.00;;;;;;941659;149;27344;-74
2022/04/17 02:45:51;;;;;;;1.30;1.20;;;6.90;50.10;;;;;;942267;149;27423;-74
2022/04/17 02:48:18;;;;;;;1.20;1.20;;;6.80;50.20;;;;;;942264;149;27466;-74
2022/04/17 02:50:44;;;;;;;1.50;1.20;;;6.80;50.30;;;;;;942109;149;27368;-74
2022/04/17 02:53:11;;;;;;;1.40;1.30;;;6.70;50.40;;;;;;942215;149;27437;-74
2022/04/17 02:55:37;;;;;;;2.20;1.30;;;6.70;50.50;;;;;;941414;149;27363;-74
2022/04/17 02:58:04;;;;;;;1.40;1.30;;;6.60;50.60;;;;;;942533;149;27352;-74
2022/04/17 03:00:31;;;;;;;1.40;1.30;;;6.60;50.80;;;;;;942699;149;27373;-74
2022/04/17 03:05:42;;;;;;;1.67;1.30;;;6.50;51.00;;;;;;942030;149;27494;-75
2022/04/17 03:08:08;;;;;;;3.23;1.73;;;6.40;51.00;;;;;;942176;149;27476;-75
2022/04/17 03:10:38;;;;;;;1.20;1.10;;;6.30;51.20;;;;;;942957;149;27814;-74
2022/04/17 03:13:05;;;;;;;2.27;1.23;;;6.30;51.30;;;;;;942737;149;27502;-74
2022/04/17 03:15:34;;;;;;;1.80;1.33;;;6.20;51.80;;;;;;940238;148;27401;-74
2022/04/17 03:18:00;;;;;;;1.20;1.20;;;6.20;51.50;;;;;;936929;149;27312;-74
2022/04/17 03:20:27;;;;;;;1.50;1.40;;;6.10;51.60;;;;;;936543;149;27361;-74
2022/04/17 03:22:54;;;;;;;1.40;1.30;;;6.10;51.60;;;;;;937336;149;27439;-74
2022/04/17 03:25:20;;;;;;;1.67;1.47;;;6.00;51.80;;;;;;935416;149;27827;-76
2022/04/17 03:27:47;;;;;;;1.30;1.30;;;6.00;51.90;;;;;;936200;149;27337;-76
2022/04/17 03:30:16;;;;;;;2.37;1.30;;;5.90;52.00;;;;;;936301;149;27280;-76
2022/04/17 03:32:45;;;;;;;1.63;1.53;;;5.90;52.10;;;;;;934472;149;27402;-76
2022/04/17 03:35:12;;;;;;;1.57;1.30;;;5.90;52.20;;;;;;935752;149;27428;-76
2022/04/17 03:37:39;;;;;;;1.50;1.40;;;5.80;52.20;;;;;;936031;149;27342;-76
2022/04/17 03:40:05;;;;;;;1.57;1.30;;;5.80;52.30;;;;;;935379;149;27712;-76
2022/04/17 03:42:32;;;;;;;1.10;1.10;;;5.80;52.40;;;;;;935795;149;27357;-76
2022/04/17 03:44:58;;;;;;;1.40;1.30;;;5.80;52.50;;;;;;935745;149;27775;-76
2022/04/17 03:47:25;;;;;;;1.30;1.20;;;5.80;52.50;;;;;;935398;149;27401;-77
2022/04/17 03:49:52;;;;;;;1.30;1.20;;;5.70;52.70;;;;;;935719;149;27369;-76
2022/04/17 03:52:18;;;;;;;1.27;1.20;;;5.70;52.80;;;;;;934745;149;27370;-76
2022/04/17 03:54:45;;;;;;;1.47;1.37;;;5.70;52.80;;;;;;935808;149;27303;-76
2022/04/17 03:57:11;;;;;;;3.23;1.70;;;5.60;52.70;;;;;;935453;149;27388;-76
2022/04/17 03:59:38;;;;;;;1.50;1.37;;;5.60;53.10;;;;;;936637;149;27313;-76
2022/04/17 04:02:05;;;;;;;2.03;1.50;;;5.50;53.00;;;;;;934975;149;27361;-76
2022/04/17 04:04:31;;;;;;;1.40;1.30;;;5.50;53.10;;;;;;935876;149;27503;-76
2022/04/17 04:06:58;;;;;;;1.53;1.43;;;5.50;53.10;;;;;;936146;149;27693;-76
2022/04/17 04:09:24;;;;;;;1.33;1.23;;;5.50;53.20;;;;;;935411;149;27346;-76
2022/04/17 04:11:51;;;;;;;1.70;1.60;;;5.40;53.30;;;;;;935193;149;27340;-76
2022/04/17 04:14:17;;;;;;;1.50;1.40;;;5.40;53.60;;;;;;935959;149;27357;-76
2022/04/17 04:16:44;;;;;;;1.50;1.40;;;5.40;53.60;;;;;;938722;149;27429;-76
2022/04/17 04:19:13;;;;;;;1.50;1.40;;;5.30;53.60;;;;;;943117;149;27306;-76
2022/04/17 04:21:47;;;;;;;1.97;1.43;;;5.30;53.70;;;;;;942720;149;27340;-76
2022/04/17 04:24:04;;;;;;;1.73;1.63;;;5.30;53.90;;;;;;941630;149;27352;-76
2022/04/17 04:26:30;;;;;;;2.70;1.50;;;5.30;54.00;;;;;;942761;149;27400;-76
2022/04/17 04:28:58;;;;;;;1.70;1.60;;;5.20;54.00;;;;;;943088;149;27458;-76
2022/04/17 04:31:24;;;;;;;1.83;1.57;;;5.20;54.00;;;;;;941667;148;27373;-76
2022/04/17 04:33:50;;;;;;;1.40;1.30;;;5.20;54.10;;;;;;942038;149;27400;-76
2022/04/17 04:36:17;;;;;;;1.73;1.63;;;5.20;54.30;;;;;;942156;149;27374;-76
2022/04/17 04:38:43;;;;;;;1.77;1.40;;;5.20;54.30;;;;;;943366;149;27336;-76
2022/04/17 04:41:10;;;;;;;1.33;1.23;;;5.10;54.30;;;;;;942150;149;27363;-76
2022/04/17 04:43:36;;;;;;;1.70;1.60;;;5.10;54.40;;;;;;942538;149;27927;-77
2022/04/17 04:46:11;;;;;;;1.60;1.50;;;5.10;54.70;;;;;;942482;149;27308;-77
2022/04/17 04:51:25;;;;;;;1.30;1.17;;;5.10;54.90;;;;;;942664;149;27385;-75
2022/04/17 04:53:52;;;;;;;2.57;1.60;;;5.20;55.00;;;;;;942373;149;27438;-75
2022/04/17 04:56:19;;;;;;;3.90;1.60;;;5.20;55.40;;;;;;942090;149;27317;-75
2022/04/17 04:58:45;;;;;;;1.70;1.60;;;5.40;55.90;;;;;;942775;149;27338;-75
2022/04/17 05:01:12;;;;;;;3.10;1.60;;;5.60;56.50;;;;;;942731;149;27294;-75
2022/04/17 05:03:38;;;;;;;1.60;1.50;;;5.90;57.00;;;;;;942530;149;27404;-75
2022/04/17 05:06:07;;;;;;;1.90;1.70;;;6.30;57.30;;;;;;942204;149;27800;-75
2022/04/17 05:08:32;;;;;;;2.27;1.70;;;6.80;57.60;;;;;;942633;149;27348;-75
2022/04/17 05:10:58;;;;;;;2.00;1.90;;;7.40;57.60;;;;;;942316;149;27419;-75
2022/04/17 05:13:25;;;;;;;2.47;2.13;;;8.10;57.60;;;;;;942198;149;27330;-75
2022/04/17 05:15:52;;;;;;;2.17;1.87;;;8.70;57.10;;;;;;943102;149;27337;-75
2022/04/17 05:18:18;;;;;;;2.07;1.80;;;9.40;56.60;;;;;;936929;149;27412;-75
2022/04/17 05:20:45;;;;;;;2.87;1.70;;;10.10;56.20;;;;;;935713;149;27347;-75
2022/04/17 05:23:29;;;;;;;2.20;2.00;;;10.80;55.70;;;;;;937126;149;28166;-75
2022/04/17 05:25:53;;;;;;;1.77;1.67;;;11.50;55.30;;;;;;936383;150;27430;-75
2022/04/17 05:28:19;;;;;;;1.70;1.60;;;12.30;54.70;;;;;;936423;149;27322;-74
2022/04/17 05:30:46;;;;;;;1.63;1.53;;;13.00;54.00;;;;;;937354;150;27458;-74
2022/04/17 05:33:13;;;;;;;1.30;1.20;;;13.70;53.40;;;;;;936635;150;27361;-74
2022/04/17 05:35:39;;;;;;;1.70;1.60;;;14.50;52.70;;;;;;935709;149;27457;-74
2022/04/17 05:38:06;;;;;;;2.10;1.70;;;15.10;52.00;;;;;;934680;149;27304;-74
2022/04/17 05:40:36;;;;;;;1.70;1.50;;;15.80;51.20;;;;;;937068;149;27443;-75
2022/04/17 05:43:02;;;;;;;1.67;1.57;;;16.40;50.50;;;;;;934738;149;27384;-75
2022/04/17 05:45:28;;;;;;;1.92;1.72;;;17.10;49.70;;;;;;937363;150;27345;-75
2022/04/17 05:47:55;;;;;;;2.45;1.90;;;17.70;49.00;;;;;;936947;150;27361;-75
2022/04/17 05:50:21;;;;;;;1.72;1.62;;;18.30;48.40;;;;;;937160;149;27323;-75
2022/04/17 05:52:48;;;;;;;1.77;1.62;;;18.80;47.80;;;;;;937021;150;27435;-75
2022/04/17 05:55:15;;;;;;;1.70;1.60;;;19.40;47.20;;;;;;936351;149;27374;-75
2022/04/17 05:57:41;;;;;;;2.20;1.87;;;19.90;46.50;;;;;;937036;149;27377;-75
2022/04/17 06:00:08;;;;;;;1.67;1.45;;;20.50;46.00;;;;;;936779;149;27474;-75
2022/04/17 06:02:38;;;;;;;1.70;1.40;;;21.00;45.20;;;;;;936393;150;27378;-75
2022/04/17 06:05:04;;;;;;;1.62;1.40;;;21.50;44.60;;;;;;936493;150;27368;-75
2022/04/17 06:07:30;;;;;;;2.60;1.32;;;22.00;44.10;;;;;;937135;149;27369;-75
2022/04/17 06:09:57;;;;;;;1.60;1.50;;;22.60;43.50;;;;;;937217;149;27428;-75
2022/04/17 06:12:23;;;;;;;1.45;1.35;;;23.10;43.00;;;;;;937285;150;27333;-75
2022/04/17 06:14:50;;;;;;;1.70;1.50;;;23.60;42.40;;;;;;937128;149;27368;-75
2022/04/17 06:17:17;;;;;;;1.70;1.57;;;24.10;41.80;;;;;;940982;148;27376;-75
2022/04/17 06:19:43;;;;;;;1.50;1.40;;;24.70;41.20;;;;;;953039;147;27348;-76
2022/04/17 06:22:11;;;;;;;1.50;1.25;;;25.20;40.70;;;;;;952776;147;27426;-76
2022/04/17 06:24:36;;;;;;;1.40;1.30;;;25.60;40.00;;;;;;951876;148;27336;-76
2022/04/17 06:27:03;;;;;;;2.75;1.30;;;26.10;39.50;;;;;;953294;147;27327;-76
2022/04/17 06:29:30;;;;;;;1.70;1.10;;;26.50;38.90;;;;;;952034;147;27381;-75
2022/04/17 06:31:56;;;;;;;1.30;1.20;;;26.90;38.50;;;;;;952104;147;27335;-75
2022/04/17 06:34:23;;;;;;;1.37;1.05;;;27.30;37.80;;;;;;953130;148;27429;-75
2022/04/17 06:36:49;;;;;;;1.57;1.30;;;27.70;37.50;;;;;;951787;147;28054;-75
2022/04/17 06:39:16;;;;;;;1.30;1.20;;;28.00;37.80;;;;;;953373;147;27288;-75
2022/04/17 06:41:44;;;;;;;1.30;1.20;;;28.40;36.80;;;;;;952605;148;27382;-75
2022/04/17 06:44:11;;;;;;;1.10;1.10;;;28.70;36.20;;;;;;952115;147;27324;-75
2022/04/17 06:46:36;;;;;;;1.45;1.35;;;29.00;35.80;;;;;;952242;148;27461;-75
2022/04/17 06:49:02;;;;;;;1.25;1.15;;;29.30;35.50;;;;;;952347;147;27391;-75
2022/04/17 06:51:29;;;;;;;1.47;1.37;;;29.60;35.00;;;;;;952572;147;27327;-75
2022/04/17 06:53:55;;;;;;;0.93;0.93;;;29.90;34.70;;;;;;953206;147;27418;-75
2022/04/17 06:56:22;;;;;;;1.40;1.30;;;30.20;34.20;;;;;;952397;148;27289;-75
2022/04/17 06:58:49;;;;;;;1.37;1.20;;;30.40;33.70;;;;;;952330;148;27355;-75
2022/04/17 07:01:15;;;;;;;1.35;1.22;;;30.70;33.40;;;;;;952536;147;27821;-75
2022/04/17 07:03:42;;;;;;;1.27;1.17;;;31.00;32.90;;;;;;952646;148;28844;-75
2022/04/17 07:06:09;;;;;;;1.07;0.98;;;31.40;32.80;;;;;;952608;148;27846;-75
2022/04/17 07:08:35;;;;;;;1.17;1.00;;;31.60;32.30;;;;;;951130;147;28095;-76
2022/04/17 07:11:02;;;;;;;0.90;0.90;;;31.90;32.00;;;;;;952993;147;27324;-76
2022/04/17 07:13:28;;;;;;;1.15;1.05;;;32.10;31.70;;;;;;952439;148;27358;-76
2022/04/17 07:15:55;;;;;;;1.30;1.20;;;32.30;31.30;;;;;;952520;148;27357;-76
2022/04/17 07:18:21;;;;;;;1.12;1.02;;;32.60;30.90;;;;;;948593;148;27374;-76
2022/04/17 07:20:48;;;;;;;1.25;0.95;;;32.70;30.30;;;;;;942958;149;27449;-76
2022/04/17 07:23:15;;;;;;;1.12;0.93;;;33.00;30.20;;;;;;943108;149;27351;-76
2022/04/17 07:25:44;;;;;;;1.15;0.90;;;33.10;29.90;;;;;;944202;149;27358;-76
2022/04/17 07:28:12;;;;;;;0.80;0.80;;;33.30;29.60;;;;;;941422;149;27371;-76
2022/04/17 07:30:37;;;;;;;1.37;1.00;;;33.40;29.30;;;;;;942681;149;27319;-76
2022/04/17 07:33:03;;;;;;;1.98;1.15;;;33.50;29.00;;;;;;942715;149;27327;-74
2022/04/17 07:35:30;;;;;;;1.27;1.00;;;33.70;28.80;;;;;;942204;149;27888;-75
2022/04/17 07:38:02;;;;;;;1.00;1.00;;;33.80;28.60;;;;;;943379;149;27439;-75
2022/04/17 07:40:29;;;;;;;1.30;1.17;;;33.80;28.50;;;;;;943920;149;27402;-75
2022/04/17 07:42:56;;;;;;;1.52;1.35;;;33.90;28.40;;;;;;942152;149;27354;-75
2022/04/17 07:45:23;;;;;;;1.12;1.07;;;34.00;28.20;;;;;;942481;149;27786;-75
2022/04/17 07:47:50;;;;;;;0.98;0.93;;;34.00;27.60;;;;;;942571;149;28153;-75
2022/04/17 07:50:15;;;;;;;1.25;1.15;;;34.00;27.40;;;;;;942034;149;27366;-75
2022/04/17 07:52:42;;;;;;;1.87;1.67;;;33.90;27.10;;;;;;942522;149;27350;-75
2022/04/17 07:55:09;;;;;;;1.20;1.10;;;33.90;27.20;;;;;;942683;149;27411;-75
2022/04/17 08:00:21;;;;;;;2.02;1.50;;;33.70;26.60;;;;;;942580;149;27361;-75
2022/04/17 08:03:06;;;;;;;1.27;1.17;;;33.50;26.00;;;;;;941912;149;27412;-75
2022/04/17 08:05:22;;;;;;;1.55;1.25;;;33.30;26.50;;;;;;941712;149;27388;-75
2022/04/17 08:07:49;;;;;;;1.10;1.00;;;33.20;26.90;;;;;;942245;149;27307;-75
2022/04/17 08:10:15;;;;;;;2.12;1.22;;;33.20;27.00;;;;;;943068;149;27350;-75
2022/04/17 08:12:42;;;;;;;1.60;1.27;;;33.30;27.10;;;;;;943579;149;27841;-75
2022/04/17 08:15:08;;;;;;;1.17;1.07;;;33.50;26.90;;;;;;943740;149;27378;-75
2022/04/17 08:17:35;;;;;;;1.40;1.30;;;33.60;26.50;;;;;;943559;149;27358;-76
2022/04/17 08:20:01;;;;;;;1.12;0.90;;;33.70;26.20;;;;;;943076;149;27360;-76
2022/04/17 08:22:28;;;;;;;1.27;1.17;;;33.80;26.60;;;;;;942955;149;27364;-75
2022/04/17 08:24:55;;;;;;;2.35;1.20;;;33.80;25.50;;;;;;944302;149;27322;-75
2022/04/17 08:27:21;;;;;;;1.75;0.93;;;33.70;25.70;;;;;;942968;149;27322;-75
2022/04/17 08:29:48;;;;;;;2.02;1.20;;;33.60;25.70;;;;;;943270;149;27466;-75
2022/04/17 08:32:14;;;;;;;2.15;1.15;;;33.60;25.60;;;;;;941186;149;27997;-75
2022/04/17 08:34:41;;;;;;;1.17;1.00;;;33.70;25.90;;;;;;942476;149;27325;-75
2022/04/17 08:37:08;;;;;;;1.17;1.02;;;33.80;25.90;;;;;;942525;149;27288;-74
2022/04/17 08:39:35;;;;;;;1.20;1.00;;;34.00;25.80;;;;;;941482;149;27334;-74
2022/04/17 08:42:01;;;;;;;1.00;0.88;;;34.10;25.60;;;;;;942828;149;26248;-74
2022/04/17 08:44:27;;;;;;;1.17;1.07;;;34.30;25.60;;;;;;941306;149;27362;-75
2022/04/17 08:46:54;;;;;;;1.20;1.10;;;34.50;25.50;;;;;;941458;149;27250;-74
2022/04/17 08:49:21;;;;;;;1.50;1.10;;;34.70;25.50;;;;;;942675;149;27321;-75
2022/04/17 08:51:48;;;;;;;2.72;1.10;;;34.90;25.40;;;;;;943220;149;26381;-74
2022/04/17 08:54:14;;;;;;;1.22;1.12;;;35.30;25.50;;;;;;942355;149;26323;-74
2022/04/17 08:56:40;;;;;;;1.12;0.80;;;35.50;25.20;;;;;;941376;149;27434;-75
2022/04/17 08:59:07;;;;;;;1.22;1.00;;;35.90;25.20;;;;;;941858;149;26252;-75
2022/04/17 09:01:36;;;;;;;1.32;0.90;;;36.20;24.80;;;;;;942831;149;26225;-74
2022/04/17 09:04:06;;;;;;;0.90;0.90;;;36.40;24.10;;;;;;942080;149;26405;-74
2022/04/17 09:06:32;;;;;;;2.20;1.00;;;36.40;24.20;;;;;;943109;149;26337;-75
2022/04/17 09:08:59;;;;;;;1.40;0.93;;;36.50;23.70;;;;;;942971;149;26275;-74
2022/04/17 09:11:26;;;;;;;1.10;1.00;;;36.30;23.50;;;;;;942694;149;28494;-74
2022/04/17 09:13:52;;;;;;;1.55;1.05;;;36.20;23.40;;;;;;943046;149;26216;-74
2022/04/17 09:16:19;;;;;;;1.50;1.12;;;36.10;23.50;;;;;;941509;149;26862;-75
2022/04/17 09:18:45;;;;;;;1.15;1.05;;;36.00;23.40;;;;;;941848;149;26193;-75
2022/04/17 09:21:12;;;;;;;2.40;1.15;;;35.80;23.20;;;;;;943102;149;26264;-74
2022/04/17 09:23:40;;;;;;;2.77;0.90;;;35.60;22.90;;;;;;939228;149;27471;-75
2022/04/17 09:26:05;;;;;;;1.52;1.10;;;35.40;23.30;;;;;;942831;149;26161;-75
2022/04/17 09:28:32;;;;;;;1.32;1.00;;;35.20;23.20;;;;;;942291;149;27320;-74
2022/04/17 09:31:01;;;;;;;1.47;0.80;;;35.00;22.80;;;;;;940843;149;27365;-75
2022/04/17 09:33:25;;;;;;;0.90;0.90;;;34.80;22.80;;;;;;941700;149;26264;-75
2022/04/17 09:35:55;;;;;;;1.52;1.00;;;34.50;22.40;;;;;;941599;149;27478;-74
2022/04/17 09:38:21;;;;;;;1.47;1.00;;;34.20;22.50;;;;;;940936;149;27365;-74
2022/04/17 09:40:47;;;;;;;0.80;0.80;;;33.80;22.60;;;;;;940991;149;27318;-74
2022/04/17 09:43:14;;;;;;;1.95;0.98;;;33.50;22.60;;;;;;941678;149;27345;-74
2022/04/17 09:45:57;;;;;;;1.75;0.88;;;33.20;22.20;;;;;;942106;149;27344;-74
2022/04/17 09:48:22;;;;;;;1.12;1.00;;;32.70;22.00;;;;;;940865;149;27464;-74
2022/04/17 09:50:49;;;;;;;1.22;1.12;;;32.00;22.00;;;;;;941774;149;27406;-74
2022/04/17 09:53:34;;;;;;;1.87;1.20;;;31.40;22.30;;;;;;941672;149;27413;-74
2022/04/17 09:56:04;;;;;;;1.32;1.02;;;30.80;22.60;;;;;;940950;149;27344;-74
2022/04/17 09:58:30;;;;;;;0.95;0.70;;;30.20;22.60;;;;;;941066;148;27362;-74
2022/04/17 10:00:58;;;;;;;1.07;0.80;;;29.70;22.90;;;;;;941007;149;27378;-74
2022/04/17 10:03:23;;;;;;;0.78;0.78;;;29.20;22.90;;;;;;941293;149;27520;-74
2022/04/17 10:05:50;;;;;;;1.02;0.82;;;28.90;23.30;;;;;;940790;149;27441;-74
2022/04/17 10:08:16;;;;;;;0.78;0.68;;;28.60;23.10;;;;;;940571;149;27259;-74
2022/04/17 10:10:43;;;;;;;1.12;0.90;;;28.30;23.20;;;;;;941526;149;27805;-75
2022/04/17 10:13:10;;;;;;;1.47;1.25;;;28.00;23.30;;;;;;940952;149;27447;-74
2022/04/17 10:15:36;;;;;;;0.90;0.80;;;27.70;23.20;;;;;;940988;149;27307;-74
2022/04/17 10:18:03;;;;;;;0.90;0.90;;;27.30;22.90;;;;;;940137;149;27295;-74
2022/04/17 10:20:29;;;;;;;0.98;0.90;;;27.00;22.90;;;;;;942082;149;27400;-74
2022/04/17 10:22:57;;;;;;;1.20;1.12;;;26.50;23.10;;;;;;941403;149;27300;-73
2022/04/17 10:25:23;;;;;;;1.10;1.00;;;26.10;22.90;;;;;;942022;149;27324;-73
2022/04/17 10:27:49;;;;;;;0.85;0.80;;;25.60;23.00;;;;;;941664;149;27407;-75
2022/04/17 10:30:22;;;;;;;1.05;0.95;;;25.20;23.30;;;;;;942091;149;27416;-74
2022/04/17 10:33:13;;;;;;;1.45;0.98;;;24.80;23.60;;;;;;938688;149;27392;-74
2022/04/17 10:35:52;;;;;;;0.98;0.98;;;24.40;24.00;;;;;;941750;149;27423;-74
2022/04/17 10:38:18;;;;;;;1.00;0.80;;;24.10;24.20;;;;;;940452;149;27340;-75
2022/04/17 10:40:57;;;;;;;0.72;0.72;;;23.90;24.40;;;;;;942464;149;27463;-74
2022/04/17 10:43:23;;;;;;;1.10;0.75;;;23.70;24.50;;;;;;942163;149;27404;-74
2022/04/17 10:46:05;;;;;;;1.00;0.90;;;23.40;24.40;;;;;;942684;148;27438;-74
2022/04/17 10:48:31;;;;;;;1.02;0.93;;;23.20;24.60;;;;;;941152;149;27415;-74
2022/04/17 10:50:58;;;;;;;0.60;0.60;;;22.90;24.60;;;;;;941344;149;27408;-74
2022/04/17 10:53:31;;;;;;;1.15;0.93;;;22.70;24.70;;;;;;942137;149;27454;-74
2022/04/17 10:56:04;;;;;;;1.62;1.00;;;22.40;24.80;;;;;;943000;149;27764;-74
2022/04/17 10:58:44;;;;;;;0.90;0.82;;;22.10;25.00;;;;;;940670;149;27245;-74
2022/04/17 11:01:09;;;;;;;1.05;0.95;;;21.80;25.10;;;;;;941984;149;27464;-74
2022/04/17 11:03:35;;;;;;;0.68;0.68;;;21.60;25.20;;;;;;941639;149;27892;-74
2022/04/17 11:06:33;;;;;;;0.70;0.70;;;21.30;25.40;;;;;;942620;149;27358;-75
2022/04/17 11:09:05;;;;;;;0.60;0.60;;;21.00;25.70;;;;;;942451;149;27380;-74
2022/04/17 11:11:37;;;;;;;1.05;0.80;;;20.70;25.80;;;;;;941490;149;27360;-75
2022/04/17 11:14:10;;;;;;;1.07;0.80;;;20.40;26.10;;;;;;941650;149;27307;-74
2022/04/17 11:16:51;;;;;;;0.78;0.72;;;20.30;26.30;;;;;;942460;149;27745;-74
2022/04/17 11:19:18;;;;;;;1.37;1.10;;;20.10;26.40;;;;;;942615;149;27372;-73
2022/04/17 11:21:44;;;;;;;0.85;0.85;;;19.90;26.60;;;;;;942564;149;27409;-74
2022/04/17 11:24:11;;;;;;;1.22;0.90;;;19.80;26.80;;;;;;941749;149;27346;-75
2022/04/17 11:26:53;;;;;;;1.22;0.90;;;19.60;27.00;;;;;;942635;149;27736;-74
2022/04/17 11:29:37;;;;;;;0.75;0.65;;;19.60;27.00;;;;;;942317;149;27338;-74
2022/04/17 11:32:19;;;;;;;2.12;0.90;;;19.50;27.10;;;;;;942712;149;27412;-74
2022/04/17 11:34:52;;;;;;;0.95;0.95;;;19.40;27.20;;;;;;934797;149;27376;-74
2022/04/17 11:37:17;;;;;;;1.30;1.12;;;19.30;27.60;;;;;;941175;149;27402;-74
2022/04/17 11:39:44;;;;;;;1.55;1.00;;;19.20;27.40;;;;;;943312;149;27417;-75
2022/04/17 11:42:10;;;;;;;0.78;0.75;;;19.10;27.50;;;;;;943538;149;28239;-74
2022/04/17 11:44:37;;;;;;;1.67;1.15;;;19.10;27.70;;;;;;942728;149;27450;-74
2022/04/17 11:47:04;;;;;;;1.20;1.10;;;19.00;27.90;;;;;;942267;149;27279;-75
2022/04/17 11:49:32;;;;;;;0.82;0.82;;;18.90;27.80;;;;;;942506;149;27353;-75
2022/04/17 11:51:57;;;;;;;1.05;0.90;;;18.90;27.90;;;;;;942820;149;27371;-75
2022/04/17 11:54:32;;;;;;;1.15;1.05;;;18.80;28.00;;;;;;942985;149;27328;-74
2022/04/17 11:57:00;;;;;;;1.40;0.82;;;18.80;28.10;;;;;;943372;149;27398;-74
2022/04/17 11:59:25;;;;;;;1.32;1.07;;;18.80;28.10;;;;;;943132;149;27320;-74
2022/04/17 12:02:07;;;;;;;0.75;0.75;;;18.80;28.20;;;;;;942433;149;27281;-75
2022/04/17 12:04:34;;;;;;;2.55;1.20;;;18.70;28.10;;;;;;942879;149;27432;-75
2022/04/17 12:07:00;;;;;;;0.82;0.80;;;18.70;28.20;;;;;;943507;149;27423;-75
2022/04/17 12:09:27;;;;;;;1.75;0.93;;;18.60;28.20;;;;;;943191;149;27454;-75
2022/04/17 12:11:53;;;;;;;0.85;0.85;;;18.60;28.40;;;;;;943198;149;27465;-75
2022/04/17 12:14:29;;;;;;;1.32;1.02;;;18.60;28.40;;;;;;942289;149;27333;-74
2022/04/17 12:16:56;;;;;;;0.85;0.85;;;18.60;28.40;;;;;;942662;149;27294;-75
2022/04/17 12:19:22;;;;;;;0.82;0.82;;;18.60;28.50;;;;;;942980;149;27722;-75
2022/04/17 12:21:49;;;;;;;1.17;0.93;;;18.60;28.70;;;;;;944845;148;27456;-74
2022/04/17 12:24:16;;;;;;;1.30;0.72;;;18.60;28.70;;;;;;947453;148;27372;-75
2022/04/17 12:26:42;;;;;;;1.00;1.00;;;18.60;28.80;;;;;;947699;148;27341;-75
2022/04/17 12:29:09;;;;;;;0.80;0.80;;;18.60;28.90;;;;;;948051;148;27320;-74
2022/04/17 12:31:35;;;;;;;0.85;0.85;;;18.70;28.90;;;;;;947933;148;27325;-74
2022/04/17 12:34:08;;;;;;;0.82;0.82;;;18.80;29.00;;;;;;947995;148;27282;-75
2022/04/17 12:36:37;;;;;;;0.85;0.82;;;18.80;29.00;;;;;;946917;148;27471;-74
2022/04/17 12:39:02;;;;;;;0.75;0.75;;;18.90;28.90;;;;;;946709;148;28113;-74
2022/04/17 12:41:28;;;;;;;1.20;1.05;;;19.00;28.80;;;;;;947236;148;27328;-75
2022/04/17 12:43:54;;;;;;;0.80;0.80;;;19.00;28.70;;;;;;948118;148;27402;-74
2022/04/17 12:46:26;;;;;;;1.05;0.98;;;19.10;28.70;;;;;;948300;148;27324;-74
2022/04/17 12:49:08;;;;;;;0.90;0.70;;;19.10;28.60;;;;;;946952;148;27712;-74
2022/04/17 12:51:37;;;;;;;1.15;0.70;;;19.20;28.70;;;;;;947469;148;27316;-75
2022/04/17 12:54:05;;;;;;;1.12;0.90;;;19.20;28.70;;;;;;947801;148;27430;-74
2022/04/17 12:56:30;;;;;;;0.78;0.78;;;19.20;28.70;;;;;;947835;148;27369;-74
2022/04/17 12:58:57;;;;;;;1.22;0.88;;;19.30;28.80;;;;;;948715;148;27371;-74
2022/04/17 13:01:26;;;;;;;0.90;0.90;;;19.40;28.70;;;;;;947090;148;27924;-74
2022/04/17 13:03:52;;;;;;;0.50;0.50;;;19.40;28.70;;;;;;947332;148;27359;-74